createdAt,value
2019-05-12T00:00:48.167Z,12.85
2019-05-12T00:01:51.590Z,12.79
2019-05-12T00:02:56.077Z,12.81
2019-05-12T00:04:00.330Z,12.81
2019-05-12T00:05:05.233Z,12.80
2019-05-12T00:06:09.519Z,12.81
2019-05-12T00:07:13.950Z,12.80
2019-05-12T00:08:18.885Z,12.81
2019-05-12T00:09:23.586Z,12.81
2019-05-12T00:10:28.374Z,12.80
2019-05-12T00:11:32.830Z,12.79
2019-05-12T00:12:38.416Z,12.78
2019-05-12T00:13:43.046Z,12.79
2019-05-12T00:14:48.534Z,12.79
2019-05-12T00:15:53.122Z,12.75
2019-05-12T00:16:58.095Z,12.75
2019-05-12T00:18:02.553Z,12.75
2019-05-12T00:19:09.091Z,12.76
2019-05-12T00:20:12.869Z,12.75
2019-05-12T00:21:17.676Z,12.74
2019-05-12T00:22:23.612Z,12.74
2019-05-12T00:23:31.098Z,12.73
2019-05-12T00:24:34.280Z,12.72
2019-05-12T00:25:38.909Z,12.69
2019-05-12T00:26:43.573Z,12.69
2019-05-12T00:27:48.604Z,12.66
2019-05-12T00:28:53.678Z,12.68
2019-05-12T00:29:58.035Z,12.65
2019-05-12T00:31:02.465Z,12.66
2019-05-12T00:32:08.554Z,12.67
2019-05-12T00:33:13.014Z,12.65
2019-05-12T00:34:18.422Z,12.63
2019-05-12T00:35:23.005Z,12.61
2019-05-12T00:36:29.380Z,12.58
2019-05-12T00:37:35.048Z,12.59
2019-05-12T00:38:40.093Z,12.59
2019-05-12T00:39:44.459Z,12.57
2019-05-12T00:40:48.693Z,12.57
2019-05-12T00:41:53.057Z,12.57
2019-05-12T00:42:57.898Z,12.57
2019-05-12T00:44:02.319Z,12.57
2019-05-12T00:45:08.267Z,12.57
2019-05-12T00:46:12.810Z,12.58
2019-05-12T00:47:18.804Z,12.54
2019-05-12T00:48:23.327Z,12.54
2019-05-12T00:49:28.928Z,12.53
2019-05-12T00:50:33.737Z,12.52
2019-05-12T00:51:38.338Z,12.52
2019-05-12T00:52:42.950Z,12.52
2019-05-12T00:53:47.937Z,12.51
2019-05-12T00:54:53.548Z,12.48
2019-05-12T00:55:58.041Z,12.47
2019-05-12T00:57:02.446Z,12.49
2019-05-12T00:58:08.319Z,12.48
2019-05-12T00:59:13.038Z,12.48
2019-05-12T01:00:17.875Z,12.46
2019-05-12T01:01:22.626Z,12.46
2019-05-12T01:02:28.639Z,12.44
2019-05-12T01:03:33.223Z,12.44
2019-05-12T01:04:39.029Z,12.44
2019-05-12T01:05:43.506Z,12.43
2019-05-12T01:06:48.627Z,12.42
2019-05-12T01:07:53.897Z,12.37
2019-05-12T01:08:58.435Z,12.33
2019-05-12T01:10:04.841Z,12.26
2019-05-12T01:11:08.977Z,12.27
2019-05-12T01:12:13.693Z,12.20
2019-05-12T01:13:18.667Z,12.19
2019-05-12T01:14:23.472Z,12.20
2019-05-12T01:15:28.733Z,12.21
2019-05-12T01:16:33.500Z,12.22
2019-05-12T01:17:40.135Z,12.24
2019-05-12T01:18:45.029Z,12.22
2019-05-12T01:19:49.322Z,12.24
2019-05-12T01:20:53.686Z,12.23
2019-05-12T01:21:58.705Z,12.20
2019-05-12T01:23:03.329Z,12.19
2019-05-12T01:24:08.750Z,12.19
2019-05-12T01:25:13.701Z,12.20
2019-05-12T01:26:18.107Z,12.18
2019-05-12T01:27:22.413Z,12.15
2019-05-12T01:28:27.843Z,12.16
2019-05-12T01:29:32.518Z,12.14
2019-05-12T01:30:39.057Z,12.14
2019-05-12T01:31:48.633Z,12.16
2019-05-12T01:32:53.125Z,12.15
2019-05-12T01:33:58.626Z,12.15
2019-05-12T01:35:08.122Z,12.17
2019-05-12T01:36:13.477Z,12.14
2019-05-12T01:37:23.854Z,12.14
2019-05-12T01:38:28.711Z,12.14
2019-05-12T01:39:33.259Z,12.08
2019-05-12T01:40:39.274Z,12.07
2019-05-12T01:41:43.979Z,12.06
2019-05-12T01:42:48.472Z,12.03
2019-05-12T01:43:52.705Z,12.01
2019-05-12T01:44:58.463Z,11.97
2019-05-12T01:46:02.812Z,11.97
2019-05-12T01:47:08.330Z,11.98
2019-05-12T01:48:12.694Z,11.94
2019-05-12T01:49:18.692Z,11.92
2019-05-12T01:50:23.083Z,11.93
2019-05-12T01:51:28.449Z,11.93
2019-05-12T01:52:32.761Z,11.93
2019-05-12T01:53:37.936Z,11.93
2019-05-12T01:54:42.296Z,11.93
2019-05-12T01:55:48.599Z,11.94
2019-05-12T01:56:52.897Z,11.95
2019-05-12T01:57:57.965Z,11.95
2019-05-12T01:59:02.318Z,11.93
2019-05-12T02:00:09.826Z,11.92
2019-05-12T02:01:14.146Z,11.92
2019-05-12T02:02:18.552Z,11.90
2019-05-12T02:03:22.781Z,11.91
2019-05-12T02:04:28.640Z,11.91
2019-05-12T02:05:32.827Z,11.91
2019-05-12T02:06:38.580Z,11.90
2019-05-12T02:07:44.750Z,11.91
2019-05-12T02:08:50.906Z,11.90
2019-05-12T02:09:55.266Z,11.91
2019-05-12T02:11:18.360Z,11.90
2019-05-12T02:12:22.662Z,11.90
2019-05-12T02:13:27.767Z,11.88
2019-05-12T02:14:31.943Z,11.88
2019-05-12T02:15:38.268Z,11.88
2019-05-12T02:16:42.399Z,11.88
2019-05-12T02:17:48.107Z,11.88
2019-05-12T02:18:52.442Z,11.79
2019-05-12T02:19:58.685Z,11.87
2019-05-12T02:21:03.063Z,11.88
2019-05-12T02:22:08.420Z,11.88
2019-05-12T02:23:12.858Z,11.86
2019-05-12T02:24:26.789Z,11.86
2019-05-12T02:25:23.098Z,11.84
2019-05-12T02:26:29.041Z,11.84
2019-05-12T02:27:34.412Z,11.82
2019-05-12T02:28:39.466Z,11.79
2019-05-12T02:29:43.872Z,11.78
2019-05-12T02:30:50.166Z,11.78
2019-05-12T02:31:54.449Z,11.78
2019-05-12T02:32:59.796Z,11.76
2019-05-12T02:34:05.674Z,11.76
2019-05-12T02:35:10.381Z,11.74
2019-05-12T02:36:15.207Z,11.71
2019-05-12T02:37:19.935Z,11.71
2019-05-12T02:38:25.338Z,11.69
2019-05-12T02:39:29.733Z,11.65
2019-05-12T02:40:34.670Z,11.64
2019-05-12T02:41:39.530Z,11.64
2019-05-12T02:42:46.292Z,11.63
2019-05-12T02:43:49.882Z,11.62
2019-05-12T02:44:55.203Z,11.62
2019-05-12T02:45:59.666Z,11.60
2019-05-12T02:47:05.254Z,11.57
2019-05-12T02:48:10.012Z,11.53
2019-05-12T02:49:15.863Z,11.50
2019-05-12T02:50:36.012Z,11.50
2019-05-12T02:51:40.841Z,11.50
2019-05-12T02:52:45.203Z,11.50
2019-05-12T02:53:49.437Z,11.49
2019-05-12T02:54:59.798Z,11.48
2019-05-12T02:55:59.771Z,11.48
2019-05-12T02:57:04.900Z,11.48
2019-05-12T02:58:09.130Z,11.47
2019-05-12T02:59:16.272Z,11.46
2019-05-12T03:00:19.518Z,11.44
2019-05-12T03:01:24.573Z,11.39
2019-05-12T03:02:29.116Z,11.39
2019-05-12T03:03:35.274Z,11.37
2019-05-12T03:04:40.634Z,11.37
2019-05-12T03:05:45.232Z,11.35
2019-05-12T03:06:49.489Z,11.38
2019-05-12T03:07:55.284Z,11.38
2019-05-12T03:09:04.944Z,11.33
2019-05-12T03:10:09.380Z,11.33
2019-05-12T03:11:14.812Z,11.33
2019-05-12T03:12:19.466Z,11.34
2019-05-12T03:13:25.291Z,11.33
2019-05-12T03:14:30.238Z,11.30
2019-05-12T03:15:36.715Z,11.30
2019-05-12T03:16:40.455Z,11.29
2019-05-12T03:17:45.643Z,11.31
2019-05-12T03:18:50.003Z,11.28
2019-05-12T03:19:55.695Z,11.28
2019-05-12T03:21:00.183Z,11.28
2019-05-12T03:22:05.151Z,11.26
2019-05-12T03:23:09.828Z,11.20
2019-05-12T03:24:17.397Z,11.20
2019-05-12T03:25:25.017Z,11.19
2019-05-12T03:26:25.930Z,11.18
2019-05-12T03:27:30.292Z,11.19
2019-05-12T03:28:35.544Z,11.18
2019-05-12T03:29:40.401Z,11.19
2019-05-12T03:30:48.211Z,11.19
2019-05-12T03:31:50.768Z,11.19
2019-05-12T03:32:57.948Z,11.19
2019-05-12T03:34:08.199Z,11.20
2019-05-12T03:35:08.628Z,11.18
2019-05-12T03:36:17.802Z,11.12
2019-05-12T03:37:18.996Z,11.10
2019-05-12T03:38:25.057Z,11.09
2019-05-12T03:39:29.326Z,11.08
2019-05-12T03:40:37.536Z,11.03
2019-05-12T03:41:39.727Z,11.03
2019-05-12T03:42:45.156Z,11.07
2019-05-12T03:43:49.411Z,11.04
2019-05-12T03:44:54.718Z,11.02
2019-05-12T03:46:00.318Z,11.02
2019-05-12T03:47:05.203Z,11.03
2019-05-12T03:48:09.466Z,11.02
2019-05-12T03:49:15.401Z,11.02
2019-05-12T03:50:19.915Z,11.01
2019-05-12T03:51:25.294Z,11.01
2019-05-12T03:52:29.530Z,11.01
2019-05-12T03:53:35.256Z,11.01
2019-05-12T03:54:39.715Z,11.02
2019-05-12T03:55:46.786Z,11.01
2019-05-12T03:56:50.975Z,11.01
2019-05-12T03:57:55.342Z,11.01
2019-05-12T03:58:59.639Z,11.00
2019-05-12T04:00:06.369Z,10.98
2019-05-12T04:01:14.746Z,10.98
2019-05-12T04:02:17.564Z,10.96
2019-05-12T04:03:24.457Z,10.94
2019-05-12T04:04:28.091Z,10.95
2019-05-12T04:05:34.895Z,10.93
2019-05-12T04:06:38.732Z,10.96
2019-05-12T04:07:45.044Z,10.96
2019-05-12T04:08:49.627Z,10.96
2019-05-12T04:09:54.870Z,10.95
2019-05-12T04:10:59.662Z,10.96
2019-05-12T04:12:05.272Z,10.97
2019-05-12T04:13:09.986Z,10.93
2019-05-12T04:14:15.036Z,10.91
2019-05-12T04:15:20.143Z,10.93
2019-05-12T04:16:24.845Z,10.95
2019-05-12T04:17:29.578Z,10.96
2019-05-12T04:18:34.808Z,10.96
2019-05-12T04:19:39.428Z,10.95
2019-05-12T04:20:45.278Z,10.95
2019-05-12T04:21:49.853Z,10.96
2019-05-12T04:22:54.842Z,10.99
2019-05-12T04:23:59.243Z,11.01
2019-05-12T04:25:06.031Z,11.00
2019-05-12T04:26:13.329Z,11.03
2019-05-12T04:27:15.831Z,11.05
2019-05-12T04:28:20.259Z,11.04
2019-05-12T04:29:25.116Z,11.03
2019-05-12T04:30:29.611Z,11.01
2019-05-12T04:31:35.073Z,11.03
2019-05-12T04:32:39.425Z,11.05
2019-05-12T04:33:45.131Z,11.07
2019-05-12T04:34:49.706Z,11.09
2019-05-12T04:35:55.376Z,11.07
2019-05-12T04:37:00.195Z,11.02
2019-05-12T04:38:05.347Z,11.00
2019-05-12T04:39:10.043Z,11.04
2019-05-12T04:40:15.070Z,11.05
2019-05-12T04:41:20.319Z,10.98
2019-05-12T04:42:25.280Z,11.01
2019-05-12T04:43:29.968Z,11.02
2019-05-12T04:44:34.828Z,11.06
2019-05-12T04:45:39.591Z,11.08
2019-05-12T04:46:45.036Z,11.11
2019-05-12T04:47:49.831Z,11.12
2019-05-12T04:48:54.682Z,11.14
2019-05-12T04:49:59.322Z,11.17
2019-05-12T04:51:05.137Z,11.19
2019-05-12T04:52:10.818Z,11.14
2019-05-12T04:53:15.068Z,11.15
2019-05-12T04:54:19.890Z,11.18
2019-05-12T04:55:25.576Z,11.21
2019-05-12T04:56:30.537Z,11.22
2019-05-12T04:57:34.912Z,11.24
2019-05-12T04:58:39.658Z,11.22
2019-05-12T04:59:45.063Z,11.22
2019-05-12T05:00:49.812Z,11.25
2019-05-12T05:01:54.177Z,11.23
2019-05-12T05:02:58.782Z,11.25
2019-05-12T05:04:05.494Z,11.27
2019-05-12T05:05:09.733Z,11.29
2019-05-12T05:06:15.003Z,11.32
2019-05-12T05:07:19.625Z,11.34
2019-05-12T05:08:24.563Z,11.35
2019-05-12T05:09:29.257Z,11.37
2019-05-12T05:10:34.490Z,11.37
2019-05-12T05:11:39.300Z,11.39
2019-05-12T05:12:44.960Z,11.39
2019-05-12T05:13:49.722Z,11.40
2019-05-12T05:14:54.945Z,11.42
2019-05-12T05:15:59.565Z,11.42
2019-05-12T05:17:05.849Z,11.43
2019-05-12T05:18:10.741Z,11.44
2019-05-12T05:19:15.133Z,11.44
2019-05-12T05:20:19.657Z,11.43
2019-05-12T05:21:24.194Z,11.46
2019-05-12T05:22:28.711Z,11.49
2019-05-12T05:23:33.518Z,11.48
2019-05-12T05:24:38.198Z,11.50
2019-05-12T05:25:43.457Z,11.53
2019-05-12T05:26:48.136Z,11.53
2019-05-12T05:27:53.342Z,11.55
2019-05-12T05:28:57.906Z,11.56
2019-05-12T05:30:03.984Z,11.56
2019-05-12T05:31:08.580Z,11.51
2019-05-12T05:32:14.072Z,11.49
2019-05-12T05:33:20.027Z,11.50
2019-05-12T05:34:24.575Z,11.55
2019-05-12T05:35:35.141Z,11.52
2019-05-12T05:36:35.289Z,11.54
2019-05-12T05:37:43.633Z,11.55
2019-05-12T05:38:51.114Z,11.56
2019-05-12T05:39:53.993Z,11.57
2019-05-12T05:40:59.748Z,11.58
2019-05-12T05:42:05.557Z,11.60
2019-05-12T05:43:18.220Z,11.63
2019-05-12T05:44:16.353Z,11.58
2019-05-12T05:45:24.147Z,11.61
2019-05-12T05:46:27.125Z,11.63
2019-05-12T05:47:33.449Z,11.58
2019-05-12T05:48:37.805Z,11.61
2019-05-12T05:49:43.400Z,11.64
2019-05-12T05:50:48.001Z,11.66
2019-05-12T05:51:56.838Z,11.66
2019-05-12T05:52:58.667Z,11.68
2019-05-12T05:54:03.991Z,11.70
2019-05-12T05:55:14.927Z,11.71
2019-05-12T05:56:18.197Z,11.73
2019-05-12T05:57:25.810Z,11.76
2019-05-12T05:58:27.680Z,11.78
2019-05-12T05:59:36.727Z,11.81
2019-05-12T06:00:40.206Z,11.82
2019-05-12T06:01:47.139Z,11.85
2019-05-12T06:02:50.889Z,11.83
2019-05-12T06:03:58.440Z,11.83
2019-05-12T06:05:04.241Z,11.85
2019-05-12T06:06:12.308Z,11.86
2019-05-12T06:07:14.421Z,11.89
2019-05-12T06:08:20.839Z,11.91
2019-05-12T06:09:25.386Z,11.92
2019-05-12T06:10:38.466Z,11.93
2019-05-12T06:11:36.271Z,11.95
2019-05-12T06:12:46.436Z,11.92
2019-05-12T06:13:46.875Z,11.94
2019-05-12T06:14:55.301Z,11.94
2019-05-12T06:15:57.714Z,11.95
2019-05-12T06:17:04.322Z,11.94
2019-05-12T06:18:09.780Z,11.95
2019-05-12T06:19:14.362Z,11.96
2019-05-12T06:20:18.719Z,11.97
2019-05-12T06:21:24.145Z,11.97
2019-05-12T06:22:29.708Z,11.98
2019-05-12T06:23:39.050Z,11.97
2019-05-12T06:24:40.470Z,11.96
2019-05-12T06:25:51.366Z,11.99
2019-05-12T06:26:57.686Z,12.00
2019-05-12T06:28:00.058Z,12.03
2019-05-12T06:29:04.679Z,12.04
2019-05-12T06:30:10.118Z,11.98
2019-05-12T06:31:19.075Z,12.00
2019-05-12T06:32:21.177Z,11.98
2019-05-12T06:33:31.629Z,12.01
2019-05-12T06:34:34.169Z,12.00
2019-05-12T06:35:42.200Z,12.00
2019-05-12T06:36:44.268Z,12.00
2019-05-12T06:37:57.263Z,12.00
2019-05-12T06:38:54.925Z,12.01
2019-05-12T06:40:00.595Z,12.03
2019-05-12T06:41:06.644Z,12.06
2019-05-12T06:42:14.129Z,12.06
2019-05-12T06:43:17.312Z,12.06
2019-05-12T06:44:23.897Z,12.08
2019-05-12T06:45:28.294Z,12.11
2019-05-12T06:46:34.380Z,12.04
2019-05-12T06:47:39.331Z,12.10
2019-05-12T06:48:45.667Z,12.10
2019-05-12T06:49:54.916Z,12.11
2019-05-12T06:50:57.428Z,12.02
2019-05-12T06:52:06.314Z,11.95
2019-05-12T06:53:09.013Z,11.98
2019-05-12T06:54:15.146Z,12.03
2019-05-12T06:55:19.964Z,12.08
2019-05-12T06:56:24.472Z,12.07
2019-05-12T06:57:29.118Z,12.06
2019-05-12T06:58:34.410Z,12.11
2019-05-12T06:59:42.017Z,12.15
2019-05-12T07:00:45.640Z,12.14
2019-05-12T07:01:56.102Z,12.14
2019-05-12T07:02:56.355Z,12.16
2019-05-12T07:04:06.778Z,12.15
2019-05-12T07:05:07.440Z,12.18
2019-05-12T07:06:17.551Z,12.18
2019-05-12T07:07:18.201Z,12.22
2019-05-12T07:08:30.488Z,12.27
2019-05-12T07:09:32.213Z,12.21
2019-05-12T07:10:43.032Z,12.30
2019-05-12T07:11:47.996Z,12.31
2019-05-12T07:12:58.913Z,12.32
2019-05-12T07:14:02.115Z,12.34
2019-05-12T07:15:00.766Z,12.35
2019-05-12T07:16:22.101Z,12.35
2019-05-12T07:17:26.412Z,12.34
2019-05-12T07:18:32.515Z,12.34
2019-05-12T07:19:37.565Z,12.38
2019-05-12T07:20:43.535Z,12.42
2019-05-12T07:21:50.743Z,12.45
2019-05-12T07:22:54.783Z,12.48
2019-05-12T07:24:00.435Z,12.51
2019-05-12T07:25:08.204Z,12.53
2019-05-12T07:26:18.942Z,12.53
2019-05-12T07:27:18.497Z,12.55
2019-05-12T07:28:23.704Z,12.53
2019-05-12T07:29:28.130Z,12.49
2019-05-12T07:30:35.168Z,12.55
2019-05-12T07:31:39.489Z,12.53
2019-05-12T07:32:44.214Z,12.56
2019-05-12T07:33:48.438Z,12.59
2019-05-12T07:34:54.418Z,12.62
2019-05-12T07:36:01.470Z,12.65
2019-05-12T07:37:05.462Z,12.66
2019-05-12T07:38:12.158Z,12.58
2019-05-12T07:39:16.104Z,12.61
2019-05-12T07:40:25.649Z,12.64
2019-05-12T07:41:26.894Z,12.65
2019-05-12T07:42:38.867Z,12.61
2019-05-12T07:43:37.522Z,12.62
2019-05-12T07:44:44.060Z,12.66
2019-05-12T07:45:48.160Z,12.72
2019-05-12T07:46:54.082Z,12.75
2019-05-12T07:47:59.564Z,12.77
2019-05-12T07:49:04.869Z,12.78
2019-05-12T07:50:14.882Z,12.81
2019-05-12T07:51:15.492Z,12.83
2019-05-12T07:52:20.272Z,12.81
2019-05-12T07:53:24.447Z,12.79
2019-05-12T07:54:34.599Z,12.79
2019-05-12T07:55:39.609Z,12.77
2019-05-12T07:56:44.144Z,12.77
2019-05-12T07:57:55.279Z,12.85
2019-05-12T07:58:57.091Z,12.83
2019-05-12T08:00:00.334Z,12.80
2019-05-12T08:01:08.019Z,12.81
2019-05-12T08:02:11.325Z,12.82
2019-05-12T08:03:21.170Z,12.84
2019-05-12T08:04:23.901Z,12.84
2019-05-12T08:05:28.905Z,12.85
2019-05-12T08:06:41.340Z,12.82
2019-05-12T08:07:39.686Z,12.81
2019-05-12T08:08:50.280Z,12.79
2019-05-12T08:09:50.486Z,12.82
2019-05-12T08:10:56.205Z,12.82
2019-05-12T08:12:01.124Z,12.86
2019-05-12T08:13:05.363Z,12.90
2019-05-12T08:14:13.814Z,12.82
2019-05-12T08:15:16.098Z,12.86
2019-05-12T08:16:25.696Z,12.91
2019-05-12T08:17:27.153Z,12.94
2019-05-12T08:18:36.933Z,12.96
2019-05-12T08:19:37.876Z,12.94
2019-05-12T08:20:43.516Z,12.96
2019-05-12T08:21:49.121Z,12.98
2019-05-12T08:22:54.233Z,12.97
2019-05-12T08:23:58.551Z,13.00
2019-05-12T08:25:04.202Z,13.03
2019-05-12T08:26:12.567Z,13.06
2019-05-12T08:27:15.064Z,13.08
2019-05-12T08:28:24.799Z,13.10
2019-05-12T08:29:25.826Z,13.11
2019-05-12T08:30:34.757Z,13.13
2019-05-12T08:31:40.748Z,13.14
2019-05-12T08:32:45.026Z,13.16
2019-05-12T08:33:49.755Z,13.09
2019-05-12T08:34:54.213Z,13.05
2019-05-12T08:36:04.340Z,12.94
2019-05-12T08:37:05.784Z,13.00
2019-05-12T08:38:10.512Z,13.07
2019-05-12T08:39:21.309Z,13.12
2019-05-12T08:40:21.203Z,13.15
2019-05-12T08:41:25.497Z,13.17
2019-05-12T08:42:30.294Z,13.21
2019-05-12T08:43:34.465Z,13.23
2019-05-12T08:44:40.660Z,13.22
2019-05-12T08:45:45.108Z,13.25
2019-05-12T08:46:52.142Z,13.29
2019-05-12T08:47:55.736Z,13.23
2019-05-12T08:49:02.462Z,13.27
2019-05-12T08:50:06.442Z,13.31
2019-05-12T08:51:19.378Z,13.34
2019-05-12T08:52:17.139Z,13.34
2019-05-12T08:53:23.557Z,13.32
2019-05-12T08:54:27.800Z,13.35
2019-05-12T08:55:35.371Z,13.40
2019-05-12T08:56:38.518Z,13.45
2019-05-12T08:57:49.429Z,13.50
2019-05-12T08:58:51.405Z,13.55
2019-05-12T09:00:02.825Z,13.59
2019-05-12T09:01:04.216Z,13.64
2019-05-12T09:02:10.682Z,13.60
2019-05-12T09:03:14.350Z,13.66
2019-05-12T09:04:19.352Z,13.72
2019-05-12T09:05:25.851Z,13.74
2019-05-12T09:06:29.948Z,13.77
2019-05-12T09:07:35.987Z,13.81
2019-05-12T09:08:45.239Z,13.84
2019-05-12T09:09:46.869Z,13.88
2019-05-12T09:10:55.178Z,13.88
2019-05-12T09:11:58.632Z,13.90
2019-05-12T09:13:04.159Z,13.92
2019-05-12T09:14:08.447Z,13.96
2019-05-12T09:15:13.695Z,13.98
2019-05-12T09:16:17.920Z,13.97
2019-05-12T09:17:23.236Z,14.00
2019-05-12T09:18:33.584Z,14.03
2019-05-12T09:19:34.027Z,14.07
2019-05-12T09:20:39.395Z,14.11
2019-05-12T09:21:44.943Z,14.14
2019-05-12T09:22:55.030Z,14.15
2019-05-12T09:23:56.171Z,14.19
2019-05-12T09:25:06.253Z,14.20
2019-05-12T09:26:06.865Z,14.22
2019-05-12T09:27:11.057Z,14.24
2019-05-12T09:28:15.900Z,14.27
2019-05-12T09:29:20.072Z,14.31
2019-05-12T09:30:28.998Z,14.30
2019-05-12T09:31:34.167Z,14.34
2019-05-12T09:32:44.436Z,14.39
2019-05-12T09:33:46.024Z,14.46
2019-05-12T09:34:53.141Z,14.52
2019-05-12T09:35:56.830Z,14.59
2019-05-12T09:37:03.840Z,14.66
2019-05-12T09:38:11.298Z,14.70
2019-05-12T09:39:14.267Z,14.80
2019-05-12T09:40:20.720Z,14.88
2019-05-12T09:41:25.017Z,14.97
2019-05-12T09:42:30.214Z,15.05
2019-05-12T09:43:35.024Z,15.13
2019-05-12T09:44:41.320Z,15.18
2019-05-12T09:45:52.043Z,15.24
2019-05-12T09:46:53.411Z,15.32
2019-05-12T09:47:58.959Z,15.41
2019-05-12T09:49:04.768Z,15.48
2019-05-12T09:50:15.280Z,15.55
2019-05-12T09:51:17.259Z,15.62
2019-05-12T09:52:27.015Z,15.65
2019-05-12T09:53:28.165Z,15.69
2019-05-12T09:54:40.301Z,15.73
2019-05-12T09:55:38.930Z,15.76
2019-05-12T09:56:44.183Z,15.76
2019-05-12T09:57:48.684Z,15.79
2019-05-12T09:59:01.379Z,15.79
2019-05-12T09:59:59.641Z,15.75
2019-05-12T10:01:04.976Z,15.77
2019-05-12T10:02:10.358Z,15.75
2019-05-12T10:03:16.485Z,15.73
2019-05-12T10:04:20.890Z,15.75
2019-05-12T10:05:30.439Z,15.74
2019-05-12T10:06:33.779Z,15.75
2019-05-12T10:07:37.979Z,15.73
2019-05-12T10:08:43.571Z,15.70
2019-05-12T10:09:49.286Z,15.70
2019-05-12T10:10:54.484Z,15.69
2019-05-12T10:12:00.856Z,15.71
2019-05-12T10:13:05.150Z,15.69
2019-05-12T10:14:10.926Z,15.74
2019-05-12T10:15:18.743Z,15.76
2019-05-12T10:16:23.932Z,15.74
2019-05-12T10:17:30.212Z,15.77
2019-05-12T10:18:34.337Z,15.78
2019-05-12T10:19:38.531Z,15.83
2019-05-12T10:20:44.142Z,15.83
2019-05-12T10:21:49.062Z,15.86
2019-05-12T10:22:55.153Z,15.88
2019-05-12T10:24:01.876Z,15.89
2019-05-12T10:25:07.884Z,15.91
2019-05-12T10:26:14.577Z,15.91
2019-05-12T10:27:21.037Z,15.95
2019-05-12T10:28:25.436Z,16.00
2019-05-12T10:29:31.012Z,16.03
2019-05-12T10:30:36.329Z,16.07
2019-05-12T10:31:41.058Z,16.08
2019-05-12T10:32:45.230Z,16.14
2019-05-12T10:33:55.015Z,16.16
2019-05-12T10:34:55.956Z,16.17
2019-05-12T10:36:06.729Z,16.21
2019-05-12T10:37:06.576Z,16.23
2019-05-12T10:38:13.457Z,16.25
2019-05-12T10:39:17.164Z,16.28
2019-05-12T10:40:23.314Z,16.34
2019-05-12T10:41:27.501Z,16.37
2019-05-12T10:42:33.601Z,16.40
2019-05-12T10:43:38.850Z,16.40
2019-05-12T10:44:43.770Z,16.52
2019-05-12T10:45:47.949Z,16.59
2019-05-12T10:46:54.752Z,16.60
2019-05-12T10:47:58.936Z,16.66
2019-05-12T10:49:04.000Z,16.71
2019-05-12T10:50:08.123Z,16.66
2019-05-12T10:51:12.977Z,16.75
2019-05-12T10:52:17.170Z,16.78
2019-05-12T10:53:23.530Z,16.80
2019-05-12T10:54:27.924Z,16.83
2019-05-12T10:55:33.553Z,16.86
2019-05-12T10:56:38.107Z,16.82
2019-05-12T10:57:43.938Z,16.87
2019-05-12T10:58:48.844Z,16.89
2019-05-12T10:59:53.572Z,16.94
2019-05-12T11:01:03.984Z,16.95
2019-05-12T11:02:04.353Z,17.01
2019-05-12T11:03:12.214Z,17.03
2019-05-12T11:04:14.948Z,17.12
2019-05-12T11:05:21.777Z,17.14
2019-05-12T11:06:26.025Z,17.13
2019-05-12T11:07:30.220Z,17.14
2019-05-12T11:08:35.064Z,17.10
2019-05-12T11:09:39.238Z,17.07
2019-05-12T11:10:43.964Z,17.11
2019-05-12T11:11:48.173Z,17.13
2019-05-12T11:12:52.866Z,17.16
2019-05-12T11:13:57.145Z,17.20
2019-05-12T11:15:06.824Z,17.20
2019-05-12T11:16:07.800Z,17.19
2019-05-12T11:17:13.839Z,17.22
2019-05-12T11:18:20.727Z,17.27
2019-05-12T11:19:24.837Z,17.26
2019-05-12T11:20:29.006Z,17.28
2019-05-12T11:21:33.883Z,17.30
2019-05-12T11:22:39.094Z,17.32
2019-05-12T11:23:43.896Z,17.32
2019-05-12T11:24:48.099Z,17.32
2019-05-12T11:25:53.338Z,17.35
2019-05-12T11:26:57.823Z,17.40
2019-05-12T11:28:03.724Z,17.41
2019-05-12T11:29:08.098Z,17.46
2019-05-12T11:30:13.244Z,17.49
2019-05-12T11:31:17.453Z,17.57
2019-05-12T11:32:23.210Z,17.63
2019-05-12T11:33:27.434Z,17.69
2019-05-12T11:34:33.540Z,17.68
2019-05-12T11:35:37.818Z,17.67
2019-05-12T11:36:43.740Z,17.63
2019-05-12T11:37:48.944Z,17.64
2019-05-12T11:38:53.724Z,17.61
2019-05-12T11:39:58.058Z,17.67
2019-05-12T11:41:04.273Z,17.65
2019-05-12T11:42:09.665Z,17.67
2019-05-12T11:43:14.620Z,17.71
2019-05-12T11:44:18.987Z,17.78
2019-05-12T11:45:24.162Z,17.79
2019-05-12T11:46:28.532Z,17.85
2019-05-12T11:47:35.668Z,17.81
2019-05-12T11:48:40.373Z,17.89
2019-05-12T11:49:45.736Z,17.90
2019-05-12T11:50:51.349Z,17.96
2019-05-12T11:51:56.178Z,18.01
2019-05-12T11:53:00.351Z,18.03
2019-05-12T11:54:08.933Z,18.02
2019-05-12T11:55:13.377Z,18.07
2019-05-12T11:56:17.972Z,18.12
2019-05-12T11:57:28.252Z,18.17
2019-05-12T11:58:29.359Z,18.21
2019-05-12T11:59:34.143Z,18.17
2019-05-12T12:00:40.158Z,18.15
2019-05-12T12:01:49.394Z,18.19
2019-05-12T12:02:51.715Z,18.21
2019-05-12T12:03:55.890Z,18.23
2019-05-12T12:05:00.620Z,18.27
2019-05-12T12:06:04.923Z,18.27
2019-05-12T12:07:09.770Z,18.31
2019-05-12T12:08:14.598Z,18.34
2019-05-12T12:09:20.621Z,18.35
2019-05-12T12:10:29.201Z,18.40
2019-05-12T12:11:31.287Z,18.43
2019-05-12T12:12:39.663Z,18.44
2019-05-12T12:13:42.058Z,18.43
2019-05-12T12:14:50.345Z,18.40
2019-05-12T12:15:52.810Z,18.40
2019-05-12T12:16:57.041Z,18.39
2019-05-12T12:18:12.434Z,18.40
2019-05-12T12:19:08.938Z,18.41
2019-05-12T12:20:22.406Z,18.41
2019-05-12T12:21:23.904Z,18.40
2019-05-12T12:22:29.977Z,18.33
2019-05-12T12:23:34.635Z,18.30
2019-05-12T12:24:40.333Z,18.29
2019-05-12T12:25:48.726Z,18.28
2019-05-12T12:26:53.724Z,18.30
2019-05-12T12:27:58.081Z,18.28
2019-05-12T12:29:03.463Z,18.26
2019-05-12T12:30:18.543Z,18.32
2019-05-12T12:31:14.127Z,18.36
2019-05-12T12:32:20.354Z,18.42
2019-05-12T12:33:24.724Z,18.45
2019-05-12T12:34:30.372Z,18.48
2019-05-12T12:35:35.227Z,18.56
2019-05-12T12:36:39.397Z,18.58
2019-05-12T12:37:44.925Z,18.62
2019-05-12T12:38:49.174Z,18.66
2019-05-12T12:39:54.028Z,18.65
2019-05-12T12:40:58.198Z,18.64
2019-05-12T12:42:04.389Z,18.69
2019-05-12T12:43:08.705Z,18.73
2019-05-12T12:44:13.683Z,18.74
2019-05-12T12:45:36.842Z,18.77
2019-05-12T12:46:38.381Z,18.82
2019-05-12T12:47:46.693Z,18.89
2019-05-12T12:48:48.987Z,18.94
2019-05-12T12:49:53.168Z,18.99
2019-05-12T12:50:57.916Z,19.02
2019-05-12T12:52:03.296Z,19.03
2019-05-12T12:53:08.984Z,19.04
2019-05-12T12:54:13.155Z,19.05
2019-05-12T12:55:17.946Z,19.03
2019-05-12T12:56:25.096Z,19.02
2019-05-12T12:57:28.671Z,18.99
2019-05-12T12:58:34.496Z,19.01
2019-05-12T12:59:45.408Z,18.95
2019-05-12T13:00:48.053Z,18.98
2019-05-12T13:01:51.693Z,19.02
2019-05-12T13:02:56.035Z,19.04
2019-05-12T13:04:04.528Z,19.05
2019-05-12T13:05:06.764Z,19.05
2019-05-12T13:06:13.804Z,19.07
2019-05-12T13:07:17.372Z,19.04
2019-05-12T13:08:24.475Z,18.99
2019-05-12T13:09:28.112Z,19.01
2019-05-12T13:10:33.652Z,19.01
2019-05-12T13:11:38.028Z,19.01
2019-05-12T13:12:43.710Z,18.98
2019-05-12T13:13:48.037Z,18.93
2019-05-12T13:14:53.280Z,18.91
2019-05-12T13:15:57.529Z,18.95
2019-05-12T13:17:03.871Z,18.97
2019-05-12T13:18:09.209Z,19.00
2019-05-12T13:19:17.012Z,19.04
2019-05-12T13:20:20.187Z,19.07
2019-05-12T13:21:25.014Z,19.10
2019-05-12T13:22:29.789Z,19.14
2019-05-12T13:23:40.688Z,19.18
2019-05-12T13:24:40.848Z,19.17
2019-05-12T13:25:50.744Z,19.22
2019-05-12T13:26:53.911Z,19.24
2019-05-12T13:28:01.612Z,19.27
2019-05-12T13:29:04.728Z,19.28
2019-05-12T13:30:18.530Z,19.30
2019-05-12T13:31:16.393Z,19.33
2019-05-12T13:32:25.836Z,19.35
2019-05-12T13:33:27.062Z,19.36
2019-05-12T13:34:36.588Z,19.36
2019-05-12T13:35:37.773Z,19.26
2019-05-12T13:36:43.981Z,19.27
2019-05-12T13:37:50.342Z,19.28
2019-05-12T13:38:54.967Z,19.25
2019-05-12T13:40:00.108Z,19.22
2019-05-12T13:41:09.533Z,19.21
2019-05-12T13:42:13.610Z,19.21
2019-05-12T13:43:19.631Z,19.18
2019-05-12T13:44:24.149Z,19.19
2019-05-12T13:45:28.868Z,19.20
2019-05-12T13:46:34.472Z,19.16
2019-05-12T13:47:40.019Z,19.13
2019-05-12T13:48:44.451Z,19.14
2019-05-12T13:49:49.209Z,19.18
2019-05-12T13:51:03.847Z,19.22
2019-05-12T13:51:59.944Z,19.24
2019-05-12T13:53:08.582Z,19.23
2019-05-12T13:54:11.252Z,19.21
2019-05-12T13:55:15.421Z,19.24
2019-05-12T13:56:27.369Z,19.27
2019-05-12T13:57:26.018Z,19.27
2019-05-12T13:58:34.799Z,19.28
2019-05-12T13:59:36.791Z,19.28
2019-05-12T14:00:48.986Z,19.24
2019-05-12T14:01:47.476Z,19.23